Portada
METAR-TAF:

METAR-TAF

Aeropuertos :

Base Aérea de Aviano

Aviano, Italia

latitud: 46-02N, longitud: 012-36E, altitud: 128 m

Observación

El informe se hizo hace 7 horas y 32 minutos, a las 17:55 UTC
Viento 4 kt del sur
Temperatura 10°C
Humedad 53%
Presión 1011 hPa
Visibilidad 10 km o más
sin nubes por debajo de 1500 m y sin presencia de cumulonimbus.

METAR: LIPA 021755Z 17004KT CAVOK 10/01 Q1011 RMK SKC VIS MIN 9999 WIND THR05 /////KT WIND THR23 /////KT A2988 BLU

Hora: 03:27 (01:27 UTC)

Pronóstico

El informe se hizo hace 8 horas y 27 minutos, a las 17:00 UTC
Pronóstico válido del 02 a las 18 UTC al 03 a las 03 UTC
Viento 5 kt con dirección variable
Visibilidad 10 km o más
sin nubes por debajo de 1500 m y sin presencia de cumulonimbus.

TAF: LIPA 021700Z 0218/0303 VRB05KT CAVOK

Observaciones y pronósticos meteorológicos de más de 4000 aeropuertos (mensajes METAR y TAF).

Los puntos amarillos y rojos representan las estaciones disponibles.

Ponga el ratón en el punto deseado para ver el nombre de la estación.

Haga clic para ver las observaciones y los pronósticos meteorológicos.

Para cambiar el mapa : haga clic en los botones verdes con una cruz de color negro para hacer un zoom, en el botón verde con un guión para alejar o en las flechas verdes para mapas adyacentes.


METAR-TAF: